Froelich, Iowa
Current Conditions -  °F | °C
As of 9:15 PM on Saturday 20 Dec 2014 (Local Time) from KPDC Reporting Station
Haze Haze  
Wind Chill: 32°   Ceiling: 1000
Heat Index: 32°   Visibility: 4mi
Dew Point: 28°   Wind: 3mph
Humidity: 87%   Direction: 110°ESE
Pressure: 30.19"   Gusts: NA
Location:  42.9505°N, 91.311°W
Report Text: KPDC 210315Z AUTO 11003KT 4SM BR OVC010 00/M02 A3019 RMK AO2 T10021022
Loading
Personal Weather Stations






























Interactive Weather Map New forecast layout! Learn more

10-Day Weather Forecast

Advertisements
Track Severe Weather on mobile